sensor_id;sensor_type;location;lat;lon;timestamp;temperature;humidity
28484;DHT22;15704;48.834;8.736;2022-08-14T00:00:20;17.90;90.70
28484;DHT22;15704;48.834;8.736;2022-08-14T00:04:03;17.80;90.60
28484;DHT22;15704;48.834;8.736;2022-08-14T00:08:06;17.80;90.80
28484;DHT22;15704;48.834;8.736;2022-08-14T00:11:56;17.70;91.10
28484;DHT22;15704;48.834;8.736;2022-08-14T00:15:41;17.60;91.30
28484;DHT22;15704;48.834;8.736;2022-08-14T00:19:28;17.50;91.50
28484;DHT22;15704;48.834;8.736;2022-08-14T00:23:14;17.40;91.70
28484;DHT22;15704;48.834;8.736;2022-08-14T00:26:59;17.30;91.70
28484;DHT22;15704;48.834;8.736;2022-08-14T00:30:43;17.30;91.90
28484;DHT22;15704;48.834;8.736;2022-08-14T00:34:25;17.30;92.10
28484;DHT22;15704;48.834;8.736;2022-08-14T00:38:26;17.30;92.20
28484;DHT22;15704;48.834;8.736;2022-08-14T00:42:17;17.20;92.40
28484;DHT22;15704;48.834;8.736;2022-08-14T00:46:20;17.20;93.00
28484;DHT22;15704;48.834;8.736;2022-08-14T00:50:16;17.10;93.10
28484;DHT22;15704;48.834;8.736;2022-08-14T00:54:02;17.00;93.30
28484;DHT22;15704;48.834;8.736;2022-08-14T00:57:59;16.90;93.40
28484;DHT22;15704;48.834;8.736;2022-08-14T01:02:08;16.90;93.30
28484;DHT22;15704;48.834;8.736;2022-08-14T01:05:52;16.90;93.50
28484;DHT22;15704;48.834;8.736;2022-08-14T01:09:38;16.80;93.60
28484;DHT22;15704;48.834;8.736;2022-08-14T01:13:28;16.80;93.80
28484;DHT22;15704;48.834;8.736;2022-08-14T01:17:24;16.70;94.00
28484;DHT22;15704;48.834;8.736;2022-08-14T01:21:34;16.60;94.50
28484;DHT22;15704;48.834;8.736;2022-08-14T01:25:27;16.50;94.90
28484;DHT22;15704;48.834;8.736;2022-08-14T01:29:09;16.40;95.00
28484;DHT22;15704;48.834;8.736;2022-08-14T01:33:12;16.40;95.20
28484;DHT22;15704;48.834;8.736;2022-08-14T01:36:58;16.40;95.30
28484;DHT22;15704;48.834;8.736;2022-08-14T01:40:42;16.40;95.40
28484;DHT22;15704;48.834;8.736;2022-08-14T01:44:29;16.40;95.30
28484;DHT22;15704;48.834;8.736;2022-08-14T01:48:14;16.40;95.40
28484;DHT22;15704;48.834;8.736;2022-08-14T01:52:03;16.40;95.50
28484;DHT22;15704;48.834;8.736;2022-08-14T01:56:06;16.40;95.60
28484;DHT22;15704;48.834;8.736;2022-08-14T01:59:59;16.30;95.70
28484;DHT22;15704;48.834;8.736;2022-08-14T02:03:44;16.30;95.90
28484;DHT22;15704;48.834;8.736;2022-08-14T02:07:35;16.20;96.10
28484;DHT22;15704;48.834;8.736;2022-08-14T02:11:36;16.20;96.40
28484;DHT22;15704;48.834;8.736;2022-08-14T02:15:19;16.20;96.50
28484;DHT22;15704;48.834;8.736;2022-08-14T02:19:05;16.10;96.80
28484;DHT22;15704;48.834;8.736;2022-08-14T02:22:50;16.10;97.10
28484;DHT22;15704;48.834;8.736;2022-08-14T02:26:36;16.00;97.30
28484;DHT22;15704;48.834;8.736;2022-08-14T02:30:40;16.00;97.50
28484;DHT22;15704;48.834;8.736;2022-08-14T02:34:24;15.90;98.00
28484;DHT22;15704;48.834;8.736;2022-08-14T02:38:11;15.80;98.20
28484;DHT22;15704;48.834;8.736;2022-08-14T02:42:18;15.70;98.80
28484;DHT22;15704;48.834;8.736;2022-08-14T02:46:17;15.70;99.90
28484;DHT22;15704;48.834;8.736;2022-08-14T02:50:12;15.60;99.60
28484;DHT22;15704;48.834;8.736;2022-08-14T02:53:59;15.60;99.90
28484;DHT22;15704;48.834;8.736;2022-08-14T02:57:45;15.60;99.80
28484;DHT22;15704;48.834;8.736;2022-08-14T03:01:38;15.70;99.50
28484;DHT22;15704;48.834;8.736;2022-08-14T03:05:31;16.00;98.60
28484;DHT22;15704;48.834;8.736;2022-08-14T03:09:23;16.10;98.10
28484;DHT22;15704;48.834;8.736;2022-08-14T03:13:22;16.10;97.90
28484;DHT22;15704;48.834;8.736;2022-08-14T03:17:05;16.20;97.90
28484;DHT22;15704;48.834;8.736;2022-08-14T03:20:53;16.20;97.90
28484;DHT22;15704;48.834;8.736;2022-08-14T03:24:38;16.20;98.00
28484;DHT22;15704;48.834;8.736;2022-08-14T03:28:21;16.30;97.80
28484;DHT22;15704;48.834;8.736;2022-08-14T03:32:14;16.20;97.80
28484;DHT22;15704;48.834;8.736;2022-08-14T03:35:57;16.30;98.00
28484;DHT22;15704;48.834;8.736;2022-08-14T03:40:01;16.30;98.10
28484;DHT22;15704;48.834;8.736;2022-08-14T03:43:46;16.30;98.10
28484;DHT22;15704;48.834;8.736;2022-08-14T03:47:42;16.30;98.10
28484;DHT22;15704;48.834;8.736;2022-08-14T03:51:36;16.30;98.60
28484;DHT22;15704;48.834;8.736;2022-08-14T03:55:22;16.30;98.70
28484;DHT22;15704;48.834;8.736;2022-08-14T03:59:05;16.20;98.40
28484;DHT22;15704;48.834;8.736;2022-08-14T04:02:58;16.20;98.80
28484;DHT22;15704;48.834;8.736;2022-08-14T04:06:40;16.20;98.50
28484;DHT22;15704;48.834;8.736;2022-08-14T04:10:31;16.30;98.40
28484;DHT22;15704;48.834;8.736;2022-08-14T04:14:13;16.30;98.40
28484;DHT22;15704;48.834;8.736;2022-08-14T04:17:57;16.30;98.50
28484;DHT22;15704;48.834;8.736;2022-08-14T04:21:44;16.20;98.70
28484;DHT22;15704;48.834;8.736;2022-08-14T04:25:46;16.30;98.60
28484;DHT22;15704;48.834;8.736;2022-08-14T04:29:28;16.40;98.50
28484;DHT22;15704;48.834;8.736;2022-08-14T04:33:13;16.40;98.40
28484;DHT22;15704;48.834;8.736;2022-08-14T04:37:01;16.50;98.40
28484;DHT22;15704;48.834;8.736;2022-08-14T04:41:07;16.60;98.20
28484;DHT22;15704;48.834;8.736;2022-08-14T04:45:11;16.80;97.90
28484;DHT22;15704;48.834;8.736;2022-08-14T04:48:55;16.90;97.80
28484;DHT22;15704;48.834;8.736;2022-08-14T04:52:40;17.10;97.80
28484;DHT22;15704;48.834;8.736;2022-08-14T04:56:26;17.30;97.20
28484;DHT22;15704;48.834;8.736;2022-08-14T05:00:14;17.50;96.90
28484;DHT22;15704;48.834;8.736;2022-08-14T05:03:58;17.70;96.70
28484;DHT22;15704;48.834;8.736;2022-08-14T05:07:41;17.80;96.50
28484;DHT22;15704;48.834;8.736;2022-08-14T05:11:36;18.00;96.50
28484;DHT22;15704;48.834;8.736;2022-08-14T05:15:19;18.10;96.00
28484;DHT22;15704;48.834;8.736;2022-08-14T05:19:03;18.10;95.90
28484;DHT22;15704;48.834;8.736;2022-08-14T05:23:05;18.20;96.00
28484;DHT22;15704;48.834;8.736;2022-08-14T05:26:52;18.20;95.80
28484;DHT22;15704;48.834;8.736;2022-08-14T05:30:35;18.30;95.90
28484;DHT22;15704;48.834;8.736;2022-08-14T05:34:18;18.40;95.70
28484;DHT22;15704;48.834;8.736;2022-08-14T05:38:06;18.50;95.50
28484;DHT22;15704;48.834;8.736;2022-08-14T05:41:52;18.60;95.20
28484;DHT22;15704;48.834;8.736;2022-08-14T05:45:36;18.80;94.80
28484;DHT22;15704;48.834;8.736;2022-08-14T05:49:19;19.00;94.90
28484;DHT22;15704;48.834;8.736;2022-08-14T05:53:06;19.10;94.50
28484;DHT22;15704;48.834;8.736;2022-08-14T05:56:49;19.30;93.90
28484;DHT22;15704;48.834;8.736;2022-08-14T06:00:35;19.40;93.40
28484;DHT22;15704;48.834;8.736;2022-08-14T06:04:20;19.60;93.20
28484;DHT22;15704;48.834;8.736;2022-08-14T06:08:05;19.80;92.50
28484;DHT22;15704;48.834;8.736;2022-08-14T06:12:08;20.00;91.90
28484;DHT22;15704;48.834;8.736;2022-08-14T06:15:53;20.20;91.30
28484;DHT22;15704;48.834;8.736;2022-08-14T06:19:38;20.40;91.00
28484;DHT22;15704;48.834;8.736;2022-08-14T06:23:21;20.60;90.20
28484;DHT22;15704;48.834;8.736;2022-08-14T06:27:04;20.80;90.00
28484;DHT22;15704;48.834;8.736;2022-08-14T06:30:51;21.00;89.70
28484;DHT22;15704;48.834;8.736;2022-08-14T06:34:35;21.10;90.00
28484;DHT22;15704;48.834;8.736;2022-08-14T06:38:39;21.10;90.00
28484;DHT22;15704;48.834;8.736;2022-08-14T06:42:22;21.10;90.00
28484;DHT22;15704;48.834;8.736;2022-08-14T06:46:13;21.20;87.90
28484;DHT22;15704;48.834;8.736;2022-08-14T06:50:12;21.40;89.70
28484;DHT22;15704;48.834;8.736;2022-08-14T06:53:56;21.30;89.70
28484;DHT22;15704;48.834;8.736;2022-08-14T06:57:40;21.40;89.30
28484;DHT22;15704;48.834;8.736;2022-08-14T07:01:23;21.50;87.90
28484;DHT22;15704;48.834;8.736;2022-08-14T07:05:24;21.50;87.60
28484;DHT22;15704;48.834;8.736;2022-08-14T07:09:39;21.60;85.00
28484;DHT22;15704;48.834;8.736;2022-08-14T07:13:31;21.70;86.10
28484;DHT22;15704;48.834;8.736;2022-08-14T07:17:14;21.80;86.80
28484;DHT22;15704;48.834;8.736;2022-08-14T07:20:59;22.00;84.70
28484;DHT22;15704;48.834;8.736;2022-08-14T07:24:42;22.10;83.60
28484;DHT22;15704;48.834;8.736;2022-08-14T07:28:31;22.20;83.30
28484;DHT22;15704;48.834;8.736;2022-08-14T07:32:16;22.30;84.30
28484;DHT22;15704;48.834;8.736;2022-08-14T07:36:16;22.40;83.80
28484;DHT22;15704;48.834;8.736;2022-08-14T07:40:11;22.50;80.50
28484;DHT22;15704;48.834;8.736;2022-08-14T07:44:03;22.70;81.10
28484;DHT22;15704;48.834;8.736;2022-08-14T07:48:05;22.70;81.80
28484;DHT22;15704;48.834;8.736;2022-08-14T07:51:56;22.90;81.60
28484;DHT22;15704;48.834;8.736;2022-08-14T07:55:41;23.00;79.30
28484;DHT22;15704;48.834;8.736;2022-08-14T07:59:23;23.00;79.30
28484;DHT22;15704;48.834;8.736;2022-08-14T08:03:23;23.10;78.30
28484;DHT22;15704;48.834;8.736;2022-08-14T08:07:12;23.30;78.90
28484;DHT22;15704;48.834;8.736;2022-08-14T08:10:55;23.30;78.70
28484;DHT22;15704;48.834;8.736;2022-08-14T08:14:43;23.50;77.70
28484;DHT22;15704;48.834;8.736;2022-08-14T08:18:42;23.70;76.10
28484;DHT22;15704;48.834;8.736;2022-08-14T08:22:26;23.80;76.10
28484;DHT22;15704;48.834;8.736;2022-08-14T08:26:12;23.80;75.70
28484;DHT22;15704;48.834;8.736;2022-08-14T08:30:03;23.80;75.80
28484;DHT22;15704;48.834;8.736;2022-08-14T08:33:52;24.00;76.30
28484;DHT22;15704;48.834;8.736;2022-08-14T08:37:35;24.30;75.60
28484;DHT22;15704;48.834;8.736;2022-08-14T08:41:24;24.60;73.80
28484;DHT22;15704;48.834;8.736;2022-08-14T08:45:14;24.70;73.60
28484;DHT22;15704;48.834;8.736;2022-08-14T08:48:58;24.70;72.90
28484;DHT22;15704;48.834;8.736;2022-08-14T08:52:50;24.70;72.30
28484;DHT22;15704;48.834;8.736;2022-08-14T08:56:35;24.80;72.20
28484;DHT22;15704;48.834;8.736;2022-08-14T09:00:20;24.90;72.00
28484;DHT22;15704;48.834;8.736;2022-08-14T09:04:06;25.10;72.10
28484;DHT22;15704;48.834;8.736;2022-08-14T09:08:15;25.30;71.70
28484;DHT22;15704;48.834;8.736;2022-08-14T09:12:13;25.60;70.90
28484;DHT22;15704;48.834;8.736;2022-08-14T09:15:56;25.70;70.10
28484;DHT22;15704;48.834;8.736;2022-08-14T09:19:39;25.80;70.00
28484;DHT22;15704;48.834;8.736;2022-08-14T09:23:23;26.00;69.00
28484;DHT22;15704;48.834;8.736;2022-08-14T09:27:15;26.10;68.30
28484;DHT22;15704;48.834;8.736;2022-08-14T09:31:03;26.10;68.10
28484;DHT22;15704;48.834;8.736;2022-08-14T09:35:04;26.20;67.50
28484;DHT22;15704;48.834;8.736;2022-08-14T09:38:59;26.30;66.00
28484;DHT22;15704;48.834;8.736;2022-08-14T09:42:49;26.40;66.70
28484;DHT22;15704;48.834;8.736;2022-08-14T09:46:34;26.50;65.60
28484;DHT22;15704;48.834;8.736;2022-08-14T09:50:22;26.50;65.40
28484;DHT22;15704;48.834;8.736;2022-08-14T09:54:08;26.10;65.40
28484;DHT22;15704;48.834;8.736;2022-08-14T09:58:09;26.20;64.90
28484;DHT22;15704;48.834;8.736;2022-08-14T10:02:03;26.30;65.20
28484;DHT22;15704;48.834;8.736;2022-08-14T10:05:50;26.60;64.30
28484;DHT22;15704;48.834;8.736;2022-08-14T10:09:45;26.80;63.20
28484;DHT22;15704;48.834;8.736;2022-08-14T10:13:42;26.80;61.30
28484;DHT22;15704;48.834;8.736;2022-08-14T10:17:33;26.90;61.80
28484;DHT22;15704;48.834;8.736;2022-08-14T10:21:20;27.00;61.10
28484;DHT22;15704;48.834;8.736;2022-08-14T10:25:11;27.20;60.90
28484;DHT22;15704;48.834;8.736;2022-08-14T10:29:04;27.20;59.70
28484;DHT22;15704;48.834;8.736;2022-08-14T10:33:03;27.10;59.70
28484;DHT22;15704;48.834;8.736;2022-08-14T10:36:47;27.10;60.40
28484;DHT22;15704;48.834;8.736;2022-08-14T10:40:44;27.30;59.80
28484;DHT22;15704;48.834;8.736;2022-08-14T10:44:41;27.30;59.30
28484;DHT22;15704;48.834;8.736;2022-08-14T10:48:27;27.40;57.40
28484;DHT22;15704;48.834;8.736;2022-08-14T10:52:23;27.50;59.00
28484;DHT22;15704;48.834;8.736;2022-08-14T10:56:11;27.60;59.10
28484;DHT22;15704;48.834;8.736;2022-08-14T11:00:15;27.60;58.20
28484;DHT22;15704;48.834;8.736;2022-08-14T11:04:01;27.70;59.10
28484;DHT22;15704;48.834;8.736;2022-08-14T11:07:54;27.30;59.40
28484;DHT22;15704;48.834;8.736;2022-08-14T11:11:42;27.40;58.60
28484;DHT22;15704;48.834;8.736;2022-08-14T11:15:26;27.70;58.30
28484;DHT22;15704;48.834;8.736;2022-08-14T11:19:13;27.70;58.20
28484;DHT22;15704;48.834;8.736;2022-08-14T11:22:58;27.20;58.50
28484;DHT22;15704;48.834;8.736;2022-08-14T11:26:44;27.40;59.40
28484;DHT22;15704;48.834;8.736;2022-08-14T11:30:29;27.90;59.20
28484;DHT22;15704;48.834;8.736;2022-08-14T11:34:35;27.90;59.00
28484;DHT22;15704;48.834;8.736;2022-08-14T11:38:19;28.20;57.60
28484;DHT22;15704;48.834;8.736;2022-08-14T11:42:05;28.30;58.10
28484;DHT22;15704;48.834;8.736;2022-08-14T11:46:09;28.40;57.80
28484;DHT22;15704;48.834;8.736;2022-08-14T11:50:13;28.20;58.00
28484;DHT22;15704;48.834;8.736;2022-08-14T11:54:14;28.20;58.10
28484;DHT22;15704;48.834;8.736;2022-08-14T11:58:04;28.30;57.60
28484;DHT22;15704;48.834;8.736;2022-08-14T12:01:48;28.40;56.20
28484;DHT22;15704;48.834;8.736;2022-08-14T12:05:33;28.50;56.90
28484;DHT22;15704;48.834;8.736;2022-08-14T12:09:30;28.50;57.40
28484;DHT22;15704;48.834;8.736;2022-08-14T12:13:15;28.50;57.70
28484;DHT22;15704;48.834;8.736;2022-08-14T12:17:02;28.40;57.30
28484;DHT22;15704;48.834;8.736;2022-08-14T12:20:54;28.80;56.00
28484;DHT22;15704;48.834;8.736;2022-08-14T12:24:41;28.60;54.40
28484;DHT22;15704;48.834;8.736;2022-08-14T12:28:28;28.70;55.90
28484;DHT22;15704;48.834;8.736;2022-08-14T12:32:41;29.10;54.60
28484;DHT22;15704;48.834;8.736;2022-08-14T12:36:25;29.00;53.00
28484;DHT22;15704;48.834;8.736;2022-08-14T12:40:14;29.30;53.00
28484;DHT22;15704;48.834;8.736;2022-08-14T12:44:06;29.40;53.20
28484;DHT22;15704;48.834;8.736;2022-08-14T12:47:59;29.70;52.90
28484;DHT22;15704;48.834;8.736;2022-08-14T12:52:03;29.70;52.70
28484;DHT22;15704;48.834;8.736;2022-08-14T12:55:58;29.80;52.30
28484;DHT22;15704;48.834;8.736;2022-08-14T13:00:12;29.90;52.40
28484;DHT22;15704;48.834;8.736;2022-08-14T13:04:06;29.90;51.20
28484;DHT22;15704;48.834;8.736;2022-08-14T13:07:50;29.50;51.80
28484;DHT22;15704;48.834;8.736;2022-08-14T13:11:37;29.80;51.60
28484;DHT22;15704;48.834;8.736;2022-08-14T13:15:26;30.00;50.80
28484;DHT22;15704;48.834;8.736;2022-08-14T13:19:11;29.70;50.80
28484;DHT22;15704;48.834;8.736;2022-08-14T13:22:57;29.50;51.00
28484;DHT22;15704;48.834;8.736;2022-08-14T13:26:43;29.60;51.00
28484;DHT22;15704;48.834;8.736;2022-08-14T13:30:28;29.80;51.40
28484;DHT22;15704;48.834;8.736;2022-08-14T13:34:11;30.00;50.70
28484;DHT22;15704;48.834;8.736;2022-08-14T13:37:54;29.70;50.10
28484;DHT22;15704;48.834;8.736;2022-08-14T13:41:37;29.80;50.00
28484;DHT22;15704;48.834;8.736;2022-08-14T13:45:21;29.80;49.60
28484;DHT22;15704;48.834;8.736;2022-08-14T13:49:26;30.10;49.60
28484;DHT22;15704;48.834;8.736;2022-08-14T13:53:12;30.50;49.40
28484;DHT22;15704;48.834;8.736;2022-08-14T13:56:59;30.60;49.30
28484;DHT22;15704;48.834;8.736;2022-08-14T14:00:46;30.50;48.40
28484;DHT22;15704;48.834;8.736;2022-08-14T14:04:38;30.30;48.10
28484;DHT22;15704;48.834;8.736;2022-08-14T14:08:23;29.80;48.90
28484;DHT22;15704;48.834;8.736;2022-08-14T14:12:25;30.30;49.00
28484;DHT22;15704;48.834;8.736;2022-08-14T14:16:21;30.20;48.50
28484;DHT22;15704;48.834;8.736;2022-08-14T14:20:14;30.20;48.80
28484;DHT22;15704;48.834;8.736;2022-08-14T14:24:15;30.20;48.20
28484;DHT22;15704;48.834;8.736;2022-08-14T14:28:00;30.30;48.20
28484;DHT22;15704;48.834;8.736;2022-08-14T14:31:46;30.40;47.90
28484;DHT22;15704;48.834;8.736;2022-08-14T14:35:31;30.50;47.90
28484;DHT22;15704;48.834;8.736;2022-08-14T14:39:22;30.30;47.30
28484;DHT22;15704;48.834;8.736;2022-08-14T14:43:10;30.20;47.40
28484;DHT22;15704;48.834;8.736;2022-08-14T14:46:54;30.70;47.70
28484;DHT22;15704;48.834;8.736;2022-08-14T14:50:39;30.90;47.20
28484;DHT22;15704;48.834;8.736;2022-08-14T14:54:23;30.90;46.70
28484;DHT22;15704;48.834;8.736;2022-08-14T14:58:19;31.20;46.60
28484;DHT22;15704;48.834;8.736;2022-08-14T15:02:05;31.20;46.90
28484;DHT22;15704;48.834;8.736;2022-08-14T15:05:51;31.30;46.20
28484;DHT22;15704;48.834;8.736;2022-08-14T15:09:34;31.00;46.40
28484;DHT22;15704;48.834;8.736;2022-08-14T15:13:16;31.00;46.40
28484;DHT22;15704;48.834;8.736;2022-08-14T15:17:02;31.20;45.50
28484;DHT22;15704;48.834;8.736;2022-08-14T15:20:47;31.10;45.90
28484;DHT22;15704;48.834;8.736;2022-08-14T15:24:31;31.20;45.70
28484;DHT22;15704;48.834;8.736;2022-08-14T15:28:15;31.40;45.70
28484;DHT22;15704;48.834;8.736;2022-08-14T15:32:02;31.10;45.30
28484;DHT22;15704;48.834;8.736;2022-08-14T15:35:49;31.10;45.20
28484;DHT22;15704;48.834;8.736;2022-08-14T15:39:41;30.70;45.70
28484;DHT22;15704;48.834;8.736;2022-08-14T15:43:24;30.60;47.20
28484;DHT22;15704;48.834;8.736;2022-08-14T15:47:11;30.00;49.20
28484;DHT22;15704;48.834;8.736;2022-08-14T15:51:08;29.80;49.60
28484;DHT22;15704;48.834;8.736;2022-08-14T15:54:54;29.60;50.20
28484;DHT22;15704;48.834;8.736;2022-08-14T15:58:39;29.40;50.70
28484;DHT22;15704;48.834;8.736;2022-08-14T16:02:26;29.60;51.10
28484;DHT22;15704;48.834;8.736;2022-08-14T16:06:11;29.30;51.60
28484;DHT22;15704;48.834;8.736;2022-08-14T16:09:59;29.50;51.70
28484;DHT22;15704;48.834;8.736;2022-08-14T16:14:02;29.50;51.50
28484;DHT22;15704;48.834;8.736;2022-08-14T16:17:47;29.40;51.10
28484;DHT22;15704;48.834;8.736;2022-08-14T16:21:30;29.20;51.10
28484;DHT22;15704;48.834;8.736;2022-08-14T16:25:20;29.20;50.20
28484;DHT22;15704;48.834;8.736;2022-08-14T16:29:16;29.20;50.20
28484;DHT22;15704;48.834;8.736;2022-08-14T16:32:58;29.30;50.50
28484;DHT22;15704;48.834;8.736;2022-08-14T16:36:42;29.40;51.00
28484;DHT22;15704;48.834;8.736;2022-08-14T16:40:33;29.40;51.20
28484;DHT22;15704;48.834;8.736;2022-08-14T16:44:24;29.20;51.20
28484;DHT22;15704;48.834;8.736;2022-08-14T16:48:14;29.20;51.40
28484;DHT22;15704;48.834;8.736;2022-08-14T16:52:16;29.00;51.70
28484;DHT22;15704;48.834;8.736;2022-08-14T16:56:24;28.90;51.90
28484;DHT22;15704;48.834;8.736;2022-08-14T17:00:24;28.70;52.40
28484;DHT22;15704;48.834;8.736;2022-08-14T17:04:10;28.20;53.40
28484;DHT22;15704;48.834;8.736;2022-08-14T17:08:10;28.10;54.20
28484;DHT22;15704;48.834;8.736;2022-08-14T17:12:16;27.90;54.70
28484;DHT22;15704;48.834;8.736;2022-08-14T17:16:11;27.70;55.10
28484;DHT22;15704;48.834;8.736;2022-08-14T17:20:08;27.40;55.90
28484;DHT22;15704;48.834;8.736;2022-08-14T17:24:12;27.30;56.40
28484;DHT22;15704;48.834;8.736;2022-08-14T17:28:20;27.10;56.90
28484;DHT22;15704;48.834;8.736;2022-08-14T17:32:24;27.10;56.90
28484;DHT22;15704;48.834;8.736;2022-08-14T17:36:31;26.90;57.20
28484;DHT22;15704;48.834;8.736;2022-08-14T17:40:16;26.70;57.50
28484;DHT22;15704;48.834;8.736;2022-08-14T17:44:12;26.70;58.00
28484;DHT22;15704;48.834;8.736;2022-08-14T17:48:05;26.60;58.30
28484;DHT22;15704;48.834;8.736;2022-08-14T17:52:10;26.50;58.10
28484;DHT22;15704;48.834;8.736;2022-08-14T17:56:13;26.30;58.30
28484;DHT22;15704;48.834;8.736;2022-08-14T17:59:58;26.20;58.60
28484;DHT22;15704;48.834;8.736;2022-08-14T18:03:43;26.10;58.70
28484;DHT22;15704;48.834;8.736;2022-08-14T18:07:35;26.00;58.90
28484;DHT22;15704;48.834;8.736;2022-08-14T18:11:37;25.90;59.30
28484;DHT22;15704;48.834;8.736;2022-08-14T18:15:29;25.80;59.90
28484;DHT22;15704;48.834;8.736;2022-08-14T18:19:17;25.60;60.50
28484;DHT22;15704;48.834;8.736;2022-08-14T18:23:03;25.50;61.60
28484;DHT22;15704;48.834;8.736;2022-08-14T18:26:53;25.40;62.80
28484;DHT22;15704;48.834;8.736;2022-08-14T18:30:44;25.20;65.20
28484;DHT22;15704;48.834;8.736;2022-08-14T18:34:39;25.10;67.70
28484;DHT22;15704;48.834;8.736;2022-08-14T18:38:31;24.90;69.40
28484;DHT22;15704;48.834;8.736;2022-08-14T18:42:44;24.70;70.90
28484;DHT22;15704;48.834;8.736;2022-08-14T18:46:28;24.60;71.70
28484;DHT22;15704;48.834;8.736;2022-08-14T18:50:31;24.40;72.50
28484;DHT22;15704;48.834;8.736;2022-08-14T18:54:27;24.30;73.20
28484;DHT22;15704;48.834;8.736;2022-08-14T18:58:20;24.20;74.10
28484;DHT22;15704;48.834;8.736;2022-08-14T19:02:41;24.20;74.80
28484;DHT22;15704;48.834;8.736;2022-08-14T19:06:43;24.00;75.90
28484;DHT22;15704;48.834;8.736;2022-08-14T19:10:37;24.00;77.40
28484;DHT22;15704;48.834;8.736;2022-08-14T19:14:45;24.00;78.10
28484;DHT22;15704;48.834;8.736;2022-08-14T19:18:31;23.90;79.00
28484;DHT22;15704;48.834;8.736;2022-08-14T19:22:27;23.90;79.40
28484;DHT22;15704;48.834;8.736;2022-08-14T19:26:22;23.80;79.70
28484;DHT22;15704;48.834;8.736;2022-08-14T19:30:25;23.70;80.20
28484;DHT22;15704;48.834;8.736;2022-08-14T19:34:11;23.70;80.40
28484;DHT22;15704;48.834;8.736;2022-08-14T19:38:10;23.70;80.50
28484;DHT22;15704;48.834;8.736;2022-08-14T19:42:13;23.60;80.70
28484;DHT22;15704;48.834;8.736;2022-08-14T19:46:11;23.60;81.00
28484;DHT22;15704;48.834;8.736;2022-08-14T19:50:22;23.60;81.40
28484;DHT22;15704;48.834;8.736;2022-08-14T19:54:28;23.50;81.50
28484;DHT22;15704;48.834;8.736;2022-08-14T19:58:11;23.50;81.70
28484;DHT22;15704;48.834;8.736;2022-08-14T20:01:55;23.50;82.10
28484;DHT22;15704;48.834;8.736;2022-08-14T20:05:41;23.40;82.30
28484;DHT22;15704;48.834;8.736;2022-08-14T20:09:27;23.40;82.70
28484;DHT22;15704;48.834;8.736;2022-08-14T20:13:29;23.40;82.70
28484;DHT22;15704;48.834;8.736;2022-08-14T20:17:21;23.40;82.70
28484;DHT22;15704;48.834;8.736;2022-08-14T20:21:08;23.40;82.40
28484;DHT22;15704;48.834;8.736;2022-08-14T20:24:52;23.30;82.10
28484;DHT22;15704;48.834;8.736;2022-08-14T20:28:34;23.30;81.60
28484;DHT22;15704;48.834;8.736;2022-08-14T20:32:32;23.30;81.60
28484;DHT22;15704;48.834;8.736;2022-08-14T20:36:17;23.30;81.60
28484;DHT22;15704;48.834;8.736;2022-08-14T20:40:17;23.30;81.70
28484;DHT22;15704;48.834;8.736;2022-08-14T20:44:04;23.20;82.00
28484;DHT22;15704;48.834;8.736;2022-08-14T20:48:09;23.20;82.20
28484;DHT22;15704;48.834;8.736;2022-08-14T20:51:55;23.10;82.50
28484;DHT22;15704;48.834;8.736;2022-08-14T20:55:45;23.10;82.50
28484;DHT22;15704;48.834;8.736;2022-08-14T20:59:40;23.10;82.10
28484;DHT22;15704;48.834;8.736;2022-08-14T21:03:27;23.00;82.00
28484;DHT22;15704;48.834;8.736;2022-08-14T21:07:12;23.00;81.60
28484;DHT22;15704;48.834;8.736;2022-08-14T21:11:17;23.00;81.00
28484;DHT22;15704;48.834;8.736;2022-08-14T21:15:00;22.90;81.20
28484;DHT22;15704;48.834;8.736;2022-08-14T21:18:45;22.90;81.50
28484;DHT22;15704;48.834;8.736;2022-08-14T21:22:28;22.80;81.70
28484;DHT22;15704;48.834;8.736;2022-08-14T21:26:16;22.80;81.30
28484;DHT22;15704;48.834;8.736;2022-08-14T21:30:19;22.80;81.40
28484;DHT22;15704;48.834;8.736;2022-08-14T21:34:24;22.80;82.00
28484;DHT22;15704;48.834;8.736;2022-08-14T21:38:13;22.80;82.10
28484;DHT22;15704;48.834;8.736;2022-08-14T21:41:58;22.80;81.70
28484;DHT22;15704;48.834;8.736;2022-08-14T21:45:46;22.80;81.70
28484;DHT22;15704;48.834;8.736;2022-08-14T21:49:35;22.80;81.90
28484;DHT22;15704;48.834;8.736;2022-08-14T21:53:22;22.80;82.30
28484;DHT22;15704;48.834;8.736;2022-08-14T21:57:12;22.80;82.50
28484;DHT22;15704;48.834;8.736;2022-08-14T22:00:55;22.70;83.10
28484;DHT22;15704;48.834;8.736;2022-08-14T22:04:39;22.60;84.00
28484;DHT22;15704;48.834;8.736;2022-08-14T22:08:23;22.50;85.30
28484;DHT22;15704;48.834;8.736;2022-08-14T22:12:09;22.40;86.50
28484;DHT22;15704;48.834;8.736;2022-08-14T22:16:13;22.40;87.80
28484;DHT22;15704;48.834;8.736;2022-08-14T22:20:18;22.30;88.60
28484;DHT22;15704;48.834;8.736;2022-08-14T22:24:01;22.20;90.40
28484;DHT22;15704;48.834;8.736;2022-08-14T22:27:51;22.20;90.10
28484;DHT22;15704;48.834;8.736;2022-08-14T22:31:37;22.10;90.40
28484;DHT22;15704;48.834;8.736;2022-08-14T22:52:25;21.60;91.60
28484;DHT22;15704;48.834;8.736;2022-08-14T22:56:14;21.50;92.60
28484;DHT22;15704;48.834;8.736;2022-08-14T23:00:04;21.50;92.10
28484;DHT22;15704;48.834;8.736;2022-08-14T23:03:48;21.50;95.80
28484;DHT22;15704;48.834;8.736;2022-08-14T23:07:34;21.40;96.50
28484;DHT22;15704;48.834;8.736;2022-08-14T23:11:37;21.30;97.30
28484;DHT22;15704;48.834;8.736;2022-08-14T23:15:22;21.30;99.90
28484;DHT22;15704;48.834;8.736;2022-08-14T23:19:10;21.20;97.90
28484;DHT22;15704;48.834;8.736;2022-08-14T23:22:55;21.40;95.60
28484;DHT22;15704;48.834;8.736;2022-08-14T23:26:37;21.40;95.20
28484;DHT22;15704;48.834;8.736;2022-08-14T23:30:30;21.40;95.00
28484;DHT22;15704;48.834;8.736;2022-08-14T23:34:17;21.40;94.50
28484;DHT22;15704;48.834;8.736;2022-08-14T23:38:03;21.50;94.60
28484;DHT22;15704;48.834;8.736;2022-08-14T23:41:48;21.50;95.40
28484;DHT22;15704;48.834;8.736;2022-08-14T23:45:34;21.30;97.80
28484;DHT22;15704;48.834;8.736;2022-08-14T23:49:18;21.20;99.20
28484;DHT22;15704;48.834;8.736;2022-08-14T23:53:13;21.10;99.90
28484;DHT22;15704;48.834;8.736;2022-08-14T23:57:16;20.80;99.90
